createdAt,value
2019-05-06T00:00:07.338Z,2.83
2019-05-06T00:02:34.658Z,2.67
2019-05-06T00:05:04.131Z,2.68
2019-05-06T00:07:34.062Z,2.75
2019-05-06T00:10:01.491Z,2.77
2019-05-06T00:12:29.659Z,2.69
2019-05-06T00:14:57.082Z,3.25
2019-05-06T00:17:24.493Z,2.96
2019-05-06T00:19:53.973Z,2.76
2019-05-06T00:22:21.094Z,2.92
2019-05-06T00:24:55.194Z,3.00
2019-05-06T00:27:34.119Z,2.83
2019-05-06T00:30:01.216Z,2.89
2019-05-06T00:32:28.533Z,2.97
2019-05-06T00:34:55.868Z,2.97
2019-05-06T00:37:24.127Z,2.90
2019-05-06T00:39:57.405Z,2.77
2019-05-06T00:42:36.214Z,2.72
2019-05-06T00:45:05.130Z,3.16
2019-05-06T00:47:34.038Z,3.20
2019-05-06T00:50:04.099Z,2.68
2019-05-06T00:52:30.913Z,3.27
2019-05-06T00:54:58.291Z,2.62
2019-05-06T00:57:44.586Z,2.63
2019-05-06T01:00:20.944Z,2.87
2019-05-06T01:02:48.277Z,2.83
2019-05-06T01:05:15.710Z,2.66
2019-05-06T01:07:44.098Z,2.79
2019-05-06T01:10:14.310Z,2.79
2019-05-06T01:12:45.283Z,2.78
2019-05-06T01:15:16.847Z,2.56
2019-05-06T01:17:44.473Z,2.46
2019-05-06T01:20:13.841Z,2.87
2019-05-06T01:22:43.507Z,2.61
2019-05-06T01:25:10.933Z,2.48
2019-05-06T01:27:38.273Z,2.52
2019-05-06T01:30:06.294Z,2.62
2019-05-06T01:32:34.549Z,2.61
2019-05-06T01:35:02.083Z,2.35
2019-05-06T01:37:29.413Z,2.60
2019-05-06T01:40:14.620Z,2.49
2019-05-06T01:42:46.139Z,2.25
2019-05-06T01:45:14.146Z,2.31
2019-05-06T01:47:43.687Z,2.24
2019-05-06T01:50:11.185Z,2.39
2019-05-06T01:52:38.552Z,2.18
2019-05-06T01:55:06.011Z,2.15
2019-05-06T01:57:33.822Z,2.32
2019-05-06T02:00:01.354Z,2.35
2019-05-06T02:02:28.713Z,2.92
2019-05-06T02:04:56.035Z,2.31
2019-05-06T02:07:24.179Z,2.14
2019-05-06T02:09:53.675Z,2.35
2019-05-06T02:12:21.063Z,2.25
2019-05-06T02:14:48.396Z,2.30
2019-05-06T02:17:15.733Z,2.29
2019-05-06T02:19:43.810Z,2.26
2019-05-06T02:22:26.501Z,2.64
2019-05-06T02:25:00.467Z,2.58
2019-05-06T02:27:27.794Z,2.77
2019-05-06T02:30:15.236Z,2.54
2019-05-06T02:32:51.697Z,2.73
2019-05-06T02:35:26.367Z,2.86
2019-05-06T02:37:55.074Z,2.47
2019-05-06T02:40:25.797Z,2.46
2019-05-06T02:42:54.779Z,2.32
2019-05-06T02:45:23.894Z,2.35
2019-05-06T02:48:13.781Z,2.45
2019-05-06T02:50:58.641Z,2.45
2019-05-06T02:53:26.457Z,2.39
2019-05-06T02:55:53.819Z,2.78
2019-05-06T02:58:23.749Z,2.66
2019-05-06T03:00:53.697Z,2.73
2019-05-06T03:03:22.658Z,2.70
2019-05-06T03:05:48.955Z,2.59
2019-05-06T03:08:16.328Z,2.48
2019-05-06T03:10:44.494Z,2.34
2019-05-06T03:13:14.190Z,2.30
2019-05-06T03:15:43.345Z,2.34
2019-05-06T03:18:14.284Z,2.33
2019-05-06T03:21:06.726Z,2.39
2019-05-06T03:23:36.604Z,2.37
2019-05-06T03:26:06.671Z,2.46
2019-05-06T03:28:33.575Z,2.47
2019-05-06T03:31:06.052Z,2.41
2019-05-06T03:33:47.800Z,2.48
2019-05-06T03:36:09.442Z,2.59
2019-05-06T03:38:28.774Z,2.62
2019-05-06T03:40:56.078Z,2.42
2019-05-06T03:43:23.534Z,2.51
2019-05-06T03:46:04.187Z,2.37
2019-05-06T03:48:35.416Z,2.46
2019-05-06T03:51:04.147Z,2.62
2019-05-06T03:53:33.317Z,2.55
2019-05-06T03:56:03.431Z,2.48
2019-05-06T03:58:30.652Z,2.44
2019-05-06T04:00:58.401Z,2.43
2019-05-06T04:03:42.632Z,2.60
2019-05-06T04:05:56.015Z,2.27
2019-05-06T04:08:24.233Z,2.25
2019-05-06T04:10:53.746Z,2.41
2019-05-06T04:13:23.206Z,2.29
2019-05-06T04:16:25.586Z,2.20
2019-05-06T04:19:08.736Z,2.45
2019-05-06T04:21:48.850Z,2.27
2019-05-06T04:24:29.487Z,2.31
2019-05-06T04:27:22.795Z,2.46
2019-05-06T04:29:50.574Z,2.42
2019-05-06T04:32:23.253Z,2.48
2019-05-06T04:34:49.434Z,2.39
2019-05-06T04:37:17.560Z,2.26
2019-05-06T04:39:45.214Z,2.32
2019-05-06T04:42:13.740Z,2.50
2019-05-06T04:44:43.835Z,2.27
2019-05-06T04:47:10.875Z,2.35
2019-05-06T04:49:38.255Z,2.41
2019-05-06T04:52:05.687Z,2.53
2019-05-06T04:54:33.756Z,2.50
2019-05-06T04:57:01.274Z,2.56
2019-05-06T04:59:29.297Z,2.54
2019-05-06T05:01:56.804Z,2.33
2019-05-06T05:04:31.762Z,2.45
2019-05-06T05:06:53.613Z,2.62
2019-05-06T05:09:23.058Z,2.58
2019-05-06T05:11:58.012Z,2.49
2019-05-06T05:14:45.487Z,2.57
2019-05-06T05:17:27.439Z,2.52
2019-05-06T05:19:54.825Z,2.78
2019-05-06T05:22:22.171Z,2.63
2019-05-06T05:24:49.563Z,2.45
2019-05-06T05:27:17.032Z,2.46
2019-05-06T05:29:44.370Z,2.61
2019-05-06T05:32:12.718Z,2.65
2019-05-06T05:34:40.985Z,2.66
2019-05-06T05:37:09.012Z,2.56
2019-05-06T05:39:36.555Z,2.76
2019-05-06T05:42:23.549Z,3.14
2019-05-06T05:44:52.719Z,2.96
2019-05-06T05:47:22.035Z,2.99
2019-05-06T05:50:06.505Z,2.87
2019-05-06T05:52:33.842Z,3.02
2019-05-06T05:55:02.717Z,3.08
2019-05-06T05:57:32.236Z,3.27
2019-05-06T05:59:59.743Z,3.04
2019-05-06T06:02:27.043Z,3.28
2019-05-06T06:04:57.432Z,3.26
2019-05-06T06:07:23.613Z,3.35
2019-05-06T06:09:58.909Z,3.26
2019-05-06T06:12:26.822Z,3.46
2019-05-06T06:15:13.692Z,3.34
2019-05-06T06:18:03.131Z,3.25
2019-05-06T06:20:52.872Z,3.43
2019-05-06T06:23:29.209Z,3.27
2019-05-06T06:25:56.765Z,3.27
2019-05-06T06:28:24.065Z,3.27
2019-05-06T06:31:16.132Z,3.36
2019-05-06T06:33:43.415Z,3.31
2019-05-06T06:36:36.165Z,3.24
2019-05-06T06:39:12.467Z,3.19
2019-05-06T06:41:40.035Z,3.13
2019-05-06T06:44:13.459Z,3.25
2019-05-06T06:46:42.807Z,3.27
2019-05-06T06:49:10.021Z,3.31
2019-05-06T06:51:37.331Z,3.68
2019-05-06T06:54:04.747Z,3.97
2019-05-06T06:57:03.152Z,3.94
2019-05-06T06:59:42.680Z,3.86
2019-05-06T07:02:27.733Z,3.91
2019-05-06T07:05:27.701Z,3.78
2019-05-06T07:07:47.723Z,3.61
2019-05-06T07:10:33.795Z,3.97
2019-05-06T07:13:06.541Z,3.94
2019-05-06T07:15:33.904Z,4.06
2019-05-06T07:18:02.283Z,4.06
2019-05-06T07:20:34.019Z,4.12
2019-05-06T07:23:22.118Z,4.34
2019-05-06T07:25:49.672Z,4.28
2019-05-06T07:28:17.002Z,4.69
2019-05-06T07:30:44.324Z,4.64
2019-05-06T07:33:13.685Z,4.43
2019-05-06T07:35:43.887Z,4.47
2019-05-06T07:38:11.985Z,4.64
2019-05-06T07:40:42.652Z,4.58
2019-05-06T07:43:35.485Z,4.65
2019-05-06T07:46:12.168Z,4.55
2019-05-06T07:48:42.879Z,4.74
2019-05-06T07:51:12.369Z,4.69
2019-05-06T07:53:39.597Z,4.71
2019-05-06T07:56:06.958Z,4.88
2019-05-06T07:58:34.262Z,4.73
2019-05-06T08:01:02.727Z,4.84
2019-05-06T08:03:30.199Z,4.73
2019-05-06T08:05:58.864Z,4.68
2019-05-06T08:08:26.477Z,4.85
2019-05-06T08:10:53.807Z,4.90
2019-05-06T08:13:22.589Z,5.21
2019-05-06T08:15:50.240Z,5.01
2019-05-06T08:18:17.563Z,5.17
2019-05-06T08:20:44.878Z,5.32
2019-05-06T08:23:32.380Z,5.30
2019-05-06T08:26:10.069Z,5.31
2019-05-06T08:28:40.271Z,5.70
2019-05-06T08:30:58.214Z,5.99
2019-05-06T08:33:27.679Z,6.22
2019-05-06T08:36:10.590Z,6.17
2019-05-06T08:38:24.003Z,6.10
2019-05-06T08:40:52.603Z,6.33
2019-05-06T08:43:21.837Z,6.76
2019-05-06T08:45:49.573Z,6.84
2019-05-06T08:48:16.871Z,6.75
2019-05-06T08:50:50.391Z,6.86
2019-05-06T08:53:46.381Z,6.99
2019-05-06T08:56:16.668Z,7.01
2019-05-06T08:58:47.415Z,7.02
2019-05-06T09:01:32.492Z,7.27
2019-05-06T09:04:11.355Z,7.48
2019-05-06T09:06:31.477Z,7.30
2019-05-06T09:08:58.581Z,8.08
2019-05-06T09:11:26.035Z,7.31
2019-05-06T09:13:53.332Z,7.96
2019-05-06T09:16:22.370Z,7.73
2019-05-06T09:18:49.989Z,7.99
2019-05-06T09:21:17.353Z,7.91
2019-05-06T09:23:44.698Z,8.70
2019-05-06T09:26:14.332Z,7.82
2019-05-06T09:29:02.310Z,7.46
2019-05-06T09:31:38.047Z,7.59
2019-05-06T09:34:13.651Z,7.65
2019-05-06T09:36:50.489Z,7.17
2019-05-06T09:39:12.848Z,7.16
2019-05-06T09:41:39.551Z,7.16
2019-05-06T09:44:06.977Z,6.89
2019-05-06T09:46:34.462Z,6.45
2019-05-06T09:49:12.755Z,6.65
2019-05-06T09:51:42.310Z,6.71
2019-05-06T09:54:28.980Z,6.58
2019-05-06T09:56:59.745Z,6.35
2019-05-06T09:59:27.131Z,5.73
2019-05-06T10:01:54.650Z,6.28
2019-05-06T10:04:22.028Z,5.94
2019-05-06T10:06:57.128Z,5.81
2019-05-06T10:09:18.933Z,5.69
2019-05-06T10:11:46.277Z,5.68
2019-05-06T10:14:13.811Z,5.98
2019-05-06T10:16:43.083Z,6.35
2019-05-06T10:19:13.139Z,6.53
2019-05-06T10:21:39.954Z,6.40
2019-05-06T10:24:07.359Z,6.55
2019-05-06T10:26:40.301Z,6.04
2019-05-06T10:29:26.121Z,6.54
2019-05-06T10:32:01.617Z,6.61
2019-05-06T10:34:29.088Z,6.74
2019-05-06T10:37:35.101Z,6.91
2019-05-06T10:40:13.496Z,7.18
2019-05-06T10:42:47.788Z,7.26
2019-05-06T10:45:32.377Z,6.71
2019-05-06T10:48:02.196Z,7.25
2019-05-06T10:50:33.158Z,7.14
2019-05-06T10:53:23.032Z,7.92
2019-05-06T10:55:55.597Z,7.73
2019-05-06T10:58:23.293Z,7.46
2019-05-06T11:00:56.071Z,8.23
2019-05-06T11:03:23.423Z,8.58
2019-05-06T11:05:53.467Z,8.28
2019-05-06T11:08:22.086Z,7.55
2019-05-06T11:10:49.676Z,8.09
2019-05-06T11:13:17.138Z,7.85
2019-05-06T11:15:44.568Z,9.73
2019-05-06T11:18:13.468Z,9.50
2019-05-06T11:20:43.973Z,9.23
2019-05-06T11:23:10.498Z,9.54
2019-05-06T11:25:37.934Z,9.64
2019-05-06T11:28:24.806Z,9.45
2019-05-06T11:31:13.955Z,9.99
2019-05-06T11:34:09.661Z,10.31
2019-05-06T11:36:48.758Z,11.16
2019-05-06T11:39:16.115Z,8.86
2019-05-06T11:41:59.603Z,8.37
2019-05-06T11:44:12.871Z,8.69
2019-05-06T11:46:40.295Z,8.09
2019-05-06T11:49:07.669Z,7.82
2019-05-06T11:51:35.029Z,7.49
2019-05-06T11:54:07.599Z,8.21
2019-05-06T11:56:32.710Z,7.84
2019-05-06T11:59:02.435Z,8.05
2019-05-06T12:01:58.901Z,8.12
2019-05-06T12:04:26.236Z,7.86
2019-05-06T12:07:10.032Z,7.43
2019-05-06T12:09:22.876Z,7.81
2019-05-06T12:11:52.654Z,7.84
2019-05-06T12:14:19.437Z,7.82
2019-05-06T12:16:46.827Z,7.74
2019-05-06T12:19:14.231Z,7.77
2019-05-06T12:21:43.113Z,8.00
2019-05-06T12:24:12.219Z,7.88
2019-05-06T12:26:39.752Z,7.73
2019-05-06T12:29:07.079Z,8.20
2019-05-06T12:31:34.424Z,8.80
2019-05-06T12:34:02.652Z,8.99
2019-05-06T12:36:32.304Z,9.02
2019-05-06T12:39:19.442Z,8.74
2019-05-06T12:42:12.799Z,8.16
2019-05-06T12:44:42.394Z,7.53
2019-05-06T12:47:42.657Z,7.32
2019-05-06T12:50:10.430Z,7.66
2019-05-06T12:52:37.986Z,7.64
2019-05-06T12:55:17.461Z,8.66
2019-05-06T12:57:34.979Z,8.27
2019-05-06T13:00:03.602Z,8.07
2019-05-06T13:02:32.844Z,8.09
2019-05-06T13:05:03.630Z,8.22
2019-05-06T13:07:39.163Z,8.30
2019-05-06T13:10:06.711Z,8.37
2019-05-06T13:12:34.354Z,8.16
2019-05-06T13:15:03.859Z,8.03
2019-05-06T13:17:32.918Z,8.57
2019-05-06T13:20:00.544Z,8.12
2019-05-06T13:22:53.129Z,7.97
2019-05-06T13:25:19.596Z,8.59
2019-05-06T13:27:47.549Z,9.32
2019-05-06T13:30:15.050Z,8.20
2019-05-06T13:32:47.172Z,8.29
2019-05-06T13:35:14.716Z,8.79
2019-05-06T13:37:42.376Z,8.84
2019-05-06T13:40:10.229Z,8.42
2019-05-06T13:42:42.318Z,8.94
2019-05-06T13:45:09.209Z,8.13
2019-05-06T13:47:54.437Z,9.10
2019-05-06T13:50:25.087Z,9.35
2019-05-06T13:53:08.119Z,9.31
2019-05-06T13:55:23.660Z,10.45
2019-05-06T13:57:52.302Z,8.98
2019-05-06T14:00:22.321Z,9.61
2019-05-06T14:02:55.022Z,9.63
2019-05-06T14:05:23.210Z,9.51
2019-05-06T14:07:52.766Z,9.14
2019-05-06T14:10:22.079Z,9.50
2019-05-06T14:12:49.286Z,9.11
2019-05-06T14:15:16.781Z,8.38
2019-05-06T14:17:44.205Z,8.51
2019-05-06T14:20:12.528Z,8.61
2019-05-06T14:22:40.157Z,8.24
2019-05-06T14:25:33.411Z,8.11
2019-05-06T14:28:07.392Z,8.12
2019-05-06T14:30:54.270Z,8.79
2019-05-06T14:33:23.674Z,8.34
2019-05-06T14:35:52.622Z,8.47
2019-05-06T14:38:20.293Z,8.15
2019-05-06T14:41:26.767Z,7.42
2019-05-06T14:43:53.374Z,7.39
2019-05-06T14:46:22.814Z,7.18
2019-05-06T14:48:50.462Z,7.12
2019-05-06T14:51:18.039Z,6.92
2019-05-06T14:53:45.499Z,6.93
2019-05-06T14:56:35.791Z,6.72
2019-05-06T14:59:04.161Z,7.06
2019-05-06T15:01:33.584Z,6.59
2019-05-06T15:04:01.290Z,6.93
2019-05-06T15:06:28.664Z,6.71
2019-05-06T15:08:56.040Z,7.08
2019-05-06T15:11:23.458Z,6.54
2019-05-06T15:13:52.982Z,7.20
2019-05-06T15:16:21.982Z,6.72
2019-05-06T15:18:49.524Z,7.13
2019-05-06T15:21:35.387Z,7.78
2019-05-06T15:23:46.136Z,7.44
2019-05-06T15:26:13.615Z,7.53
2019-05-06T15:28:42.559Z,7.79
2019-05-06T15:31:45.796Z,7.79
2019-05-06T15:34:17.908Z,8.23
2019-05-06T15:36:57.855Z,7.73
2019-05-06T15:39:25.250Z,8.22
2019-05-06T15:41:52.669Z,8.52
2019-05-06T15:44:20.052Z,8.15
2019-05-06T15:46:47.517Z,8.36
2019-05-06T15:49:14.896Z,8.89
2019-05-06T15:51:42.823Z,9.10
2019-05-06T15:54:10.370Z,9.45
2019-05-06T15:56:42.272Z,8.43
2019-05-06T15:59:12.001Z,8.67
2019-05-06T16:01:39.234Z,8.28
2019-05-06T16:04:06.640Z,8.60
2019-05-06T16:06:34.053Z,8.89
2019-05-06T16:09:03.551Z,9.61
2019-05-06T16:11:32.806Z,8.84
2019-05-06T16:14:06.017Z,9.16
2019-05-06T16:16:33.574Z,8.50
2019-05-06T16:19:03.866Z,8.51
2019-05-06T16:21:32.733Z,8.41
2019-05-06T16:24:06.780Z,8.74
2019-05-06T16:26:34.141Z,8.36
2019-05-06T16:29:02.398Z,8.53
2019-05-06T16:31:30.006Z,8.05
2019-05-06T16:33:57.414Z,8.64
2019-05-06T16:36:24.841Z,8.62
2019-05-06T16:38:54.705Z,8.46
2019-05-06T16:41:22.497Z,7.97
2019-05-06T16:43:52.196Z,7.68
2019-05-06T16:46:19.323Z,8.26
2019-05-06T16:48:46.811Z,7.94
2019-05-06T16:51:14.263Z,7.75
2019-05-06T16:53:42.985Z,7.64
2019-05-06T16:56:22.043Z,7.69
2019-05-06T16:58:52.808Z,7.68
2019-05-06T17:01:22.120Z,7.94
2019-05-06T17:03:58.732Z,7.51
2019-05-06T17:06:32.639Z,7.37
2019-05-06T17:09:16.812Z,8.28
2019-05-06T17:11:33.693Z,7.96
2019-05-06T17:13:59.380Z,7.44
2019-05-06T17:16:26.889Z,7.69
2019-05-06T17:18:56.814Z,7.62
2019-05-06T17:21:23.674Z,7.36
2019-05-06T17:23:52.239Z,7.15
2019-05-06T17:26:23.845Z,7.19
2019-05-06T17:28:59.509Z,7.15
2019-05-06T17:31:37.350Z,7.17
2019-05-06T17:34:05.570Z,6.99
2019-05-06T17:36:34.527Z,6.95
2019-05-06T17:39:04.098Z,7.14
2019-05-06T17:41:45.175Z,7.20
2019-05-06T17:44:02.961Z,7.20
2019-05-06T17:46:34.327Z,7.11
2019-05-06T17:49:05.459Z,6.88
2019-05-06T17:51:37.420Z,6.64
2019-05-06T17:54:05.685Z,6.89
2019-05-06T17:56:34.297Z,6.30
2019-05-06T17:59:03.163Z,6.34
2019-05-06T18:01:43.866Z,6.21
2019-05-06T18:04:12.593Z,6.33
2019-05-06T18:06:42.498Z,6.14
2019-05-06T18:09:12.436Z,6.06
2019-05-06T18:11:42.469Z,6.17
2019-05-06T18:14:12.202Z,6.31
2019-05-06T18:16:39.860Z,5.85
2019-05-06T18:19:07.483Z,5.97
2019-05-06T18:21:35.186Z,5.90
2019-05-06T18:24:03.399Z,5.81
2019-05-06T18:26:33.310Z,5.98
2019-05-06T18:29:00.737Z,6.14
2019-05-06T18:31:32.910Z,6.10
2019-05-06T18:34:02.854Z,6.38
2019-05-06T18:36:30.575Z,6.13
2019-05-06T18:38:58.143Z,5.70
2019-05-06T18:41:29.199Z,6.45
2019-05-06T18:43:56.119Z,6.27
2019-05-06T18:46:26.054Z,6.09
2019-05-06T18:48:54.275Z,6.00
2019-05-06T18:51:27.242Z,5.99
2019-05-06T18:53:55.020Z,5.80
2019-05-06T18:56:24.068Z,5.93
2019-05-06T18:58:52.963Z,6.24
2019-05-06T19:01:23.229Z,5.56
2019-05-06T19:03:59.801Z,5.72
2019-05-06T19:06:29.444Z,5.71
2019-05-06T19:09:16.646Z,5.69
2019-05-06T19:11:44.660Z,5.56
2019-05-06T19:14:12.765Z,5.68
2019-05-06T19:16:49.777Z,5.43
2019-05-06T19:19:15.175Z,5.56
2019-05-06T19:21:42.950Z,5.43
2019-05-06T19:24:12.338Z,5.71
2019-05-06T19:26:40.313Z,5.42
2019-05-06T19:29:08.716Z,5.19
2019-05-06T19:31:36.568Z,5.49
2019-05-06T19:34:07.005Z,6.14
2019-05-06T19:36:35.024Z,5.42
2019-05-06T19:39:04.724Z,5.26
2019-05-06T19:41:33.215Z,5.22
2019-05-06T19:44:02.091Z,5.53
2019-05-06T19:46:29.708Z,5.29
2019-05-06T19:48:57.241Z,5.08
2019-05-06T19:51:27.639Z,5.23
2019-05-06T19:53:55.439Z,5.14
2019-05-06T19:56:23.368Z,5.21
2019-05-06T19:58:52.574Z,5.45
2019-05-06T20:01:22.729Z,5.33
2019-05-06T20:03:49.731Z,5.07
2019-05-06T20:06:36.814Z,6.16
2019-05-06T20:09:25.596Z,5.77
2019-05-06T20:11:56.490Z,5.13
2019-05-06T20:14:25.086Z,5.61
2019-05-06T20:16:54.555Z,6.10
2019-05-06T20:19:30.859Z,5.44
2019-05-06T20:21:52.747Z,5.40
2019-05-06T20:24:22.522Z,5.07
2019-05-06T20:26:52.751Z,5.06
2019-05-06T20:29:22.252Z,5.54
2019-05-06T20:31:49.376Z,5.46
2019-05-06T20:34:16.930Z,5.08
2019-05-06T20:36:44.843Z,5.07
2019-05-06T20:39:12.351Z,5.26
2019-05-06T20:41:39.842Z,5.23
2019-05-06T20:44:07.292Z,5.33
2019-05-06T20:46:36.780Z,5.22
2019-05-06T20:49:04.421Z,5.28
2019-05-06T20:51:32.764Z,5.32
2019-05-06T20:54:00.392Z,4.95
2019-05-06T20:56:27.853Z,5.06
2019-05-06T20:58:55.226Z,4.79
2019-05-06T21:01:22.599Z,5.49
2019-05-06T21:03:52.722Z,5.32
2019-05-06T21:06:22.478Z,4.88
2019-05-06T21:08:49.521Z,4.91
2019-05-06T21:11:26.428Z,4.79
2019-05-06T21:13:47.134Z,4.76
2019-05-06T21:16:14.484Z,4.80
2019-05-06T21:18:42.067Z,4.87
2019-05-06T21:21:09.556Z,5.10
2019-05-06T21:23:36.923Z,4.81
2019-05-06T21:26:04.319Z,5.29
2019-05-06T21:28:31.738Z,4.78
2019-05-06T21:30:59.073Z,4.84
2019-05-06T21:33:26.475Z,4.79
2019-05-06T21:35:53.836Z,5.03
2019-05-06T21:38:22.707Z,5.69
2019-05-06T21:40:52.510Z,4.72
2019-05-06T21:43:19.839Z,4.85
2019-05-06T21:45:47.187Z,5.00
2019-05-06T21:48:14.626Z,4.70
2019-05-06T21:50:42.667Z,4.87
2019-05-06T21:53:12.332Z,4.61
2019-05-06T21:55:39.747Z,4.74
2019-05-06T21:58:07.177Z,4.45
2019-05-06T22:00:57.210Z,4.27
2019-05-06T22:03:24.542Z,4.76
2019-05-06T22:05:54.301Z,4.64
2019-05-06T22:08:21.560Z,4.89
2019-05-06T22:10:52.762Z,4.66
2019-05-06T22:13:21.812Z,4.38
2019-05-06T22:15:49.135Z,4.81
2019-05-06T22:18:16.557Z,4.32
2019-05-06T22:21:02.887Z,4.56
2019-05-06T22:23:50.415Z,4.68
2019-05-06T22:26:18.001Z,4.37
2019-05-06T22:28:45.468Z,4.32
2019-05-06T22:31:12.951Z,4.30
2019-05-06T22:33:42.757Z,4.34
2019-05-06T22:36:09.873Z,4.26
2019-05-06T22:38:37.247Z,4.55
2019-05-06T22:41:04.735Z,4.29
2019-05-06T22:43:32.643Z,4.28
2019-05-06T22:46:02.511Z,4.28
2019-05-06T22:48:29.575Z,4.38
2019-05-06T22:50:56.970Z,4.24
2019-05-06T22:53:24.961Z,4.19
2019-05-06T22:55:53.919Z,4.29
2019-05-06T22:58:22.777Z,4.31
2019-05-06T23:00:53.603Z,4.24
2019-05-06T23:03:22.703Z,4.14
2019-05-06T23:05:50.363Z,4.45
2019-05-06T23:08:17.761Z,4.46
2019-05-06T23:10:45.233Z,4.24
2019-05-06T23:13:12.668Z,4.35
2019-05-06T23:15:41.937Z,4.70
2019-05-06T23:18:09.362Z,4.32
2019-05-06T23:20:36.711Z,4.35
2019-05-06T23:23:04.998Z,4.04
2019-05-06T23:25:32.752Z,4.25
2019-05-06T23:28:02.638Z,4.41
2019-05-06T23:30:29.725Z,3.93
2019-05-06T23:32:57.203Z,4.03
2019-05-06T23:35:24.608Z,4.56
2019-05-06T23:38:28.613Z,4.22
2019-05-06T23:41:32.827Z,4.41
2019-05-06T23:44:45.861Z,4.78
2019-05-06T23:47:42.364Z,4.74
2019-05-06T23:50:46.447Z,4.06
2019-05-06T23:53:52.290Z,4.25
2019-05-06T23:56:43.402Z,4.31
2019-05-06T23:59:12.558Z,4.10
